createdAt,value
2018-12-25T00:02:24.510Z,3.50
2018-12-25T00:04:53.230Z,3.50
2018-12-25T00:07:21.654Z,3.50
2018-12-25T00:09:50.071Z,3.50
2018-12-25T00:12:18.504Z,3.40
2018-12-25T00:14:46.926Z,3.30
2018-12-25T00:17:15.327Z,3.30
2018-12-25T00:19:43.966Z,3.10
2018-12-25T00:22:12.379Z,3.10
2018-12-25T00:24:40.791Z,3.00
2018-12-25T00:27:09.258Z,2.80
2018-12-25T00:29:37.681Z,2.90
2018-12-25T00:32:06.093Z,2.90
2018-12-25T00:34:34.705Z,2.90
2018-12-25T00:37:03.136Z,2.80
2018-12-25T00:39:31.568Z,2.70
2018-12-25T00:42:00.175Z,2.70
2018-12-25T00:44:28.585Z,2.70
2018-12-25T00:46:57.011Z,2.70
2018-12-25T00:49:25.484Z,2.60
2018-12-25T00:51:53.904Z,2.40
2018-12-25T00:54:22.322Z,2.40
2018-12-25T00:56:50.822Z,2.40
2018-12-25T00:59:19.231Z,2.50
2018-12-25T01:01:47.640Z,2.30
2018-12-25T01:04:16.105Z,2.40
2018-12-25T01:06:44.525Z,2.40
2018-12-25T01:09:12.956Z,2.40
2018-12-25T01:11:41.409Z,2.40
2018-12-25T01:14:09.892Z,2.50
2018-12-25T01:16:38.366Z,2.50
2018-12-25T01:19:06.826Z,2.50
2018-12-25T01:21:35.246Z,2.60
2018-12-25T01:24:03.673Z,2.60
2018-12-25T01:26:32.197Z,2.70
2018-12-25T01:29:00.602Z,2.60
2018-12-25T01:31:29.031Z,2.70
2018-12-25T01:33:57.489Z,2.70
2018-12-25T01:36:25.918Z,2.60
2018-12-25T01:38:54.345Z,2.60
2018-12-25T01:41:22.805Z,2.70
2018-12-25T01:43:51.230Z,2.70
2018-12-25T01:46:19.638Z,2.70
2018-12-25T01:48:48.210Z,2.70
2018-12-25T01:51:16.700Z,2.80
2018-12-25T01:53:45.197Z,2.70
2018-12-25T01:56:13.737Z,2.80
2018-12-25T01:58:42.143Z,2.80
2018-12-25T02:01:10.552Z,2.80
2018-12-25T02:03:38.998Z,2.80
2018-12-25T02:06:07.402Z,2.90
2018-12-25T02:08:35.824Z,2.90
2018-12-25T02:11:04.578Z,2.90
2018-12-25T02:13:33.002Z,2.80
2018-12-25T02:16:01.426Z,2.80
2018-12-25T02:18:30.066Z,2.80
2018-12-25T02:20:58.477Z,2.80
2018-12-25T02:23:26.890Z,2.80
2018-12-25T02:25:55.506Z,2.80
2018-12-25T02:28:23.933Z,2.70
2018-12-25T02:30:52.343Z,2.70
2018-12-25T02:33:20.950Z,2.70
2018-12-25T02:35:49.431Z,2.70
2018-12-25T02:38:17.910Z,2.80
2018-12-25T02:40:46.389Z,2.70
2018-12-25T02:43:14.805Z,2.80
2018-12-25T02:45:43.207Z,2.60
2018-12-25T02:48:11.765Z,2.70
2018-12-25T02:50:40.176Z,2.70
2018-12-25T02:53:08.771Z,2.70
2018-12-25T02:55:37.339Z,2.70
2018-12-25T02:58:05.810Z,2.70
2018-12-25T03:00:34.223Z,2.70
2018-12-25T03:03:03.158Z,2.70
2018-12-25T03:05:31.566Z,2.70
2018-12-25T03:07:59.990Z,2.80
2018-12-25T03:10:28.536Z,2.70
2018-12-25T03:12:56.964Z,2.70
2018-12-25T03:15:25.366Z,2.70
2018-12-25T03:17:53.799Z,2.70
2018-12-25T03:20:22.217Z,2.60
2018-12-25T03:22:50.632Z,2.70
2018-12-25T03:25:19.082Z,2.70
2018-12-25T03:27:47.510Z,2.70
2018-12-25T03:30:15.911Z,2.60
2018-12-25T03:32:44.555Z,2.60
2018-12-25T03:35:13.034Z,2.60
2018-12-25T03:37:41.513Z,2.60
2018-12-25T03:40:10.116Z,2.60
2018-12-25T03:42:38.539Z,2.60
2018-12-25T03:45:06.956Z,2.60
2018-12-25T03:47:35.480Z,2.60
2018-12-25T03:50:10.578Z,2.60
2018-12-25T03:52:35.274Z,2.50
2018-12-25T03:55:04.262Z,2.50
2018-12-25T03:57:32.729Z,2.50
2018-12-25T04:00:01.160Z,2.50
2018-12-25T04:02:29.655Z,2.50
2018-12-25T04:04:58.062Z,2.60
2018-12-25T04:07:26.485Z,2.60
2018-12-25T04:09:54.927Z,2.50
2018-12-25T04:12:23.467Z,2.40
2018-12-25T04:14:51.971Z,2.50
2018-12-25T04:17:20.615Z,2.60
2018-12-25T04:19:49.038Z,2.60
2018-12-25T04:22:17.458Z,2.70
2018-12-25T04:24:46.103Z,2.80
2018-12-25T04:27:14.542Z,2.80
2018-12-25T04:29:42.954Z,2.80
2018-12-25T04:32:11.722Z,2.80
2018-12-25T04:34:40.133Z,2.80
2018-12-25T04:37:08.545Z,2.80
2018-12-25T04:39:37.006Z,2.70
2018-12-25T04:42:05.427Z,2.60
2018-12-25T04:44:33.908Z,2.70
2018-12-25T04:47:02.640Z,2.70
2018-12-25T04:49:31.046Z,2.80
2018-12-25T04:51:59.471Z,2.80
2018-12-25T04:54:28.035Z,2.80
2018-12-25T04:56:56.445Z,2.70
2018-12-25T04:59:24.863Z,2.80
2018-12-25T05:01:53.284Z,2.70
2018-12-25T05:04:21.700Z,2.80
2018-12-25T05:06:50.112Z,2.80
2018-12-25T05:09:18.732Z,2.80
2018-12-25T05:11:47.139Z,2.70
2018-12-25T05:14:15.541Z,2.80
2018-12-25T05:16:44.176Z,2.80
2018-12-25T05:21:36.274Z,2.80
2018-12-25T05:27:17.495Z,2.70
2018-12-25T05:29:45.985Z,2.70
2018-12-25T05:32:33.919Z,2.80
2018-12-25T05:35:21.884Z,2.70
2018-12-25T05:37:50.511Z,2.70
2018-12-25T05:40:38.262Z,2.70
2018-12-25T05:43:19.090Z,2.70
2018-12-25T05:45:47.515Z,2.70
2018-12-25T05:51:22.184Z,2.60
2018-12-25T05:53:50.694Z,2.50
2018-12-25T05:59:24.683Z,2.60
2018-12-25T06:02:05.436Z,2.60
2018-12-25T06:04:46.491Z,2.70
2018-12-25T06:07:27.499Z,2.70
2018-12-25T06:10:08.251Z,2.60
2018-12-25T06:12:49.123Z,2.60
2018-12-25T06:15:29.906Z,2.50
2018-12-25T06:18:10.555Z,2.50
2018-12-25T06:20:39.142Z,2.50
2018-12-25T06:23:26.962Z,2.50
2018-12-25T06:26:07.979Z,2.50
2018-12-25T06:28:49.058Z,2.50
2018-12-25T06:31:29.489Z,2.50
2018-12-25T06:34:10.596Z,2.50
2018-12-25T06:36:51.239Z,2.40
2018-12-25T06:39:32.008Z,2.40
2018-12-25T06:42:12.406Z,2.40
2018-12-25T06:44:53.423Z,2.50
2018-12-25T06:47:33.767Z,2.50
2018-12-25T06:50:14.323Z,2.50
2018-12-25T06:52:54.684Z,2.50
2018-12-25T06:55:35.517Z,2.40
2018-12-25T06:58:16.262Z,2.50
2018-12-25T07:00:56.627Z,2.40
2018-12-25T07:03:37.623Z,2.40
2018-12-25T07:06:18.370Z,2.40
2018-12-25T07:08:46.916Z,2.40
2018-12-25T07:11:34.884Z,2.40
2018-12-25T07:14:15.805Z,2.50
2018-12-25T07:16:56.394Z,2.40
2018-12-25T07:19:36.791Z,2.40
2018-12-25T07:22:17.452Z,2.40
2018-12-25T07:24:57.779Z,2.40
2018-12-25T07:27:38.670Z,2.40
2018-12-25T07:30:19.058Z,2.40
2018-12-25T07:32:59.731Z,2.40
2018-12-25T07:35:40.743Z,2.30
2018-12-25T07:38:21.535Z,2.40
2018-12-25T07:41:01.827Z,2.40
2018-12-25T07:43:42.494Z,2.40
2018-12-25T07:46:23.447Z,2.30
2018-12-25T07:49:03.807Z,2.30
2018-12-25T07:51:44.831Z,2.40
2018-12-25T07:54:25.704Z,2.40
2018-12-25T07:57:06.614Z,2.40
2018-12-25T07:59:47.411Z,2.40
2018-12-25T08:02:27.818Z,2.40
2018-12-25T08:05:08.811Z,2.60
2018-12-25T08:07:49.531Z,2.50
2018-12-25T08:10:30.122Z,2.50
2018-12-25T08:13:10.850Z,2.40
2018-12-25T08:15:39.354Z,2.50
2018-12-25T08:18:27.107Z,2.50
2018-12-25T08:21:08.236Z,2.50
2018-12-25T08:23:48.663Z,2.50
2018-12-25T08:26:29.223Z,2.50
2018-12-25T08:28:57.634Z,2.50
2018-12-25T08:34:32.436Z,2.50
2018-12-25T08:37:12.876Z,2.50
2018-12-25T08:39:53.510Z,2.50
2018-12-25T08:42:33.748Z,2.50
2018-12-25T08:45:14.545Z,2.50
2018-12-25T08:47:55.288Z,2.50
2018-12-25T08:50:36.279Z,2.50
2018-12-25T08:53:17.031Z,2.50
2018-12-25T08:55:57.665Z,2.50
2018-12-25T08:58:38.156Z,2.50
2018-12-25T09:01:18.755Z,2.50
2018-12-25T09:03:59.606Z,2.60
2018-12-25T09:06:40.730Z,2.60
2018-12-25T09:09:21.191Z,2.60
2018-12-25T09:12:02.039Z,2.60
2018-12-25T09:14:42.770Z,2.70
2018-12-25T09:17:23.496Z,2.60
2018-12-25T09:20:04.303Z,2.70
2018-12-25T09:22:45.241Z,2.70
2018-12-25T09:25:25.959Z,2.70
2018-12-25T09:28:06.951Z,2.80
2018-12-25T09:30:35.427Z,2.80
2018-12-25T09:36:10.361Z,2.80
2018-12-25T09:38:51.027Z,2.80
2018-12-25T09:41:31.755Z,2.90
2018-12-25T09:44:12.478Z,3.10
2018-12-25T09:46:53.243Z,3.10
2018-12-25T09:49:33.745Z,3.00
2018-12-25T09:52:02.334Z,3.10
2018-12-25T09:54:50.078Z,3.10
2018-12-25T09:57:28.822Z,3.10
2018-12-25T10:00:16.547Z,3.00
2018-12-25T10:02:57.658Z,3.10
2018-12-25T10:05:38.466Z,3.00
2018-12-25T10:08:19.018Z,3.00
2018-12-25T10:10:59.594Z,3.10
2018-12-25T10:13:40.045Z,3.00
2018-12-25T10:16:20.790Z,3.00
2018-12-25T10:19:01.843Z,3.00
2018-12-25T10:21:42.494Z,3.00
2018-12-25T10:24:22.880Z,3.00
2018-12-25T10:27:03.631Z,2.90
2018-12-25T10:29:44.492Z,3.00
2018-12-25T10:32:25.086Z,3.10
2018-12-25T10:35:04.154Z,3.10
2018-12-25T10:37:51.910Z,3.10
2018-12-25T10:40:32.866Z,3.20
2018-12-25T10:43:13.199Z,3.20
2018-12-25T10:45:53.966Z,3.20
2018-12-25T10:48:34.579Z,3.00
2018-12-25T10:51:14.824Z,3.00
2018-12-25T10:53:43.364Z,3.10
2018-12-25T10:56:11.786Z,3.10
2018-12-25T10:58:59.867Z,3.20
2018-12-25T11:01:40.471Z,3.20
2018-12-25T11:04:21.382Z,3.20
2018-12-25T11:07:01.837Z,3.20
2018-12-25T11:09:42.363Z,3.20
2018-12-25T11:12:23.086Z,3.20
2018-12-25T11:15:04.056Z,3.10
2018-12-25T11:17:44.706Z,3.10
2018-12-25T11:20:25.322Z,3.10
2018-12-25T11:23:05.763Z,3.10
2018-12-25T11:25:46.366Z,3.10
2018-12-25T11:28:26.959Z,3.10
2018-12-25T11:31:07.267Z,3.20
2018-12-25T11:33:48.154Z,3.20
2018-12-25T11:36:29.267Z,3.20
2018-12-25T11:39:09.651Z,3.20
2018-12-25T11:41:50.662Z,3.30
2018-12-25T11:44:31.359Z,3.30
2018-12-25T11:49:53.112Z,3.40
2018-12-25T11:52:40.880Z,3.40
2018-12-25T11:55:21.962Z,3.30
2018-12-25T11:57:50.382Z,3.30
2018-12-25T12:03:24.719Z,3.40
2018-12-25T12:06:05.466Z,3.40
2018-12-25T12:08:45.867Z,3.40
2018-12-25T12:11:26.864Z,3.40
2018-12-25T12:14:07.375Z,3.40
2018-12-25T12:16:48.142Z,3.40
2018-12-25T12:19:28.468Z,3.40
2018-12-25T12:22:09.406Z,3.40
2018-12-25T12:24:52.733Z,3.40
2018-12-25T12:27:33.143Z,3.40
2018-12-25T12:30:13.811Z,3.40
2018-12-25T12:32:42.384Z,3.40
2018-12-25T12:35:30.126Z,3.30
2018-12-25T12:43:07.199Z,3.30
2018-12-25T12:45:48.266Z,3.30
2018-12-25T12:48:16.683Z,3.30
2018-12-25T12:51:04.504Z,3.30
2018-12-25T12:53:45.703Z,3.30
2018-12-25T12:58:42.745Z,3.30
2018-12-25T13:01:30.499Z,3.40
2018-12-25T13:07:04.538Z,3.40
2018-12-25T13:09:45.240Z,3.50
2018-12-25T13:12:13.650Z,3.50
2018-12-25T13:14:42.050Z,3.50
2018-12-25T13:17:29.870Z,3.50
2018-12-25T13:19:58.298Z,3.50
2018-12-25T13:22:26.733Z,3.50
2018-12-25T13:24:55.330Z,3.50
2018-12-25T13:27:23.739Z,3.50
2018-12-25T13:29:52.149Z,3.40
2018-12-25T13:32:20.894Z,3.40
2018-12-25T13:34:49.312Z,3.30
2018-12-25T13:37:17.758Z,3.30
2018-12-25T13:39:46.303Z,3.30
2018-12-25T13:42:14.825Z,3.30
2018-12-25T13:45:02.705Z,3.30
2018-12-25T13:47:31.157Z,3.30
2018-12-25T13:49:59.570Z,3.30
2018-12-25T13:52:28.211Z,3.40
2018-12-25T13:54:56.640Z,3.40
2018-12-25T13:57:25.058Z,3.30
2018-12-25T13:59:53.700Z,3.30
2018-12-25T14:02:22.123Z,3.30
2018-12-25T14:04:50.536Z,3.40
2018-12-25T14:07:19.014Z,3.30
2018-12-25T14:09:47.426Z,3.30
2018-12-25T14:15:22.175Z,3.30
2018-12-25T14:18:02.719Z,3.40
2018-12-25T14:20:31.501Z,3.30
2018-12-25T14:22:59.912Z,3.30
2018-12-25T14:25:28.314Z,3.30
2018-12-25T14:27:56.854Z,3.30
2018-12-25T14:30:25.278Z,3.30
2018-12-25T14:32:53.688Z,3.30
2018-12-25T14:35:22.242Z,3.30
2018-12-25T14:38:10.051Z,3.30
2018-12-25T14:40:50.942Z,3.30
2018-12-25T14:43:19.418Z,3.30
2018-12-25T14:45:47.867Z,3.30
2018-12-25T14:51:22.229Z,3.40
2018-12-25T14:53:50.724Z,3.30
2018-12-25T14:56:19.122Z,3.40
2018-12-25T14:58:49.087Z,3.30
2018-12-25T15:01:17.551Z,3.40
2018-12-25T15:03:45.954Z,3.40
2018-12-25T15:06:14.504Z,3.40
2018-12-25T15:09:03.671Z,3.40
2018-12-25T15:11:32.359Z,3.30
2018-12-25T15:14:00.793Z,3.40
2018-12-25T15:16:29.205Z,3.40
2018-12-25T15:18:57.638Z,3.40
2018-12-25T15:21:27.583Z,3.30
2018-12-25T15:24:15.663Z,3.30
2018-12-25T15:26:44.099Z,3.40
2018-12-25T15:29:12.508Z,3.30
2018-12-25T15:31:41.385Z,3.30
2018-12-25T15:34:09.822Z,3.30
2018-12-25T15:36:38.230Z,3.30
2018-12-25T15:39:28.603Z,3.20
2018-12-25T15:41:57.018Z,3.20
2018-12-25T15:44:25.442Z,3.20
2018-12-25T15:46:53.990Z,3.20
2018-12-25T15:49:22.397Z,3.20
2018-12-25T15:51:50.810Z,3.20
2018-12-25T15:54:19.430Z,3.10
2018-12-25T15:56:47.850Z,3.10
2018-12-25T15:59:35.760Z,3.10
2018-12-25T16:02:05.246Z,3.10
2018-12-25T16:04:33.661Z,3.10
2018-12-25T16:07:02.385Z,3.00
2018-12-25T16:09:30.818Z,3.10
2018-12-25T16:11:59.226Z,3.00
2018-12-25T16:17:01.450Z,3.00
2018-12-25T16:19:42.023Z,3.00
2018-12-25T16:22:22.964Z,3.00
2018-12-25T16:24:51.734Z,3.00
2018-12-25T16:27:20.150Z,2.90
2018-12-25T16:29:48.579Z,2.90
2018-12-25T16:32:17.058Z,2.90
2018-12-25T16:34:45.471Z,2.90
2018-12-25T16:37:13.886Z,2.90
2018-12-25T16:39:42.366Z,3.00
2018-12-25T16:42:10.778Z,2.90
2018-12-25T16:44:39.186Z,2.90
2018-12-25T16:47:27.018Z,2.90
2018-12-25T16:49:55.493Z,2.90
2018-12-25T16:53:03.727Z,2.90
2018-12-25T16:55:44.723Z,2.90
2018-12-25T16:58:26.771Z,2.90
2018-12-25T17:01:10.296Z,2.80
2018-12-25T17:03:51.161Z,2.80
2018-12-25T17:06:19.623Z,2.70
2018-12-25T17:08:48.034Z,2.70
2018-12-25T17:11:35.880Z,2.70
2018-12-25T17:14:04.294Z,2.70
2018-12-25T17:16:32.710Z,2.80
2018-12-25T17:19:01.187Z,2.80
2018-12-25T17:21:29.599Z,2.70
2018-12-25T17:24:02.200Z,2.70
2018-12-25T17:26:28.234Z,2.70
2018-12-25T17:29:15.982Z,2.70
2018-12-25T17:31:44.765Z,2.80
2018-12-25T17:34:32.526Z,2.80
2018-12-25T17:37:01.308Z,2.80
2018-12-25T17:39:29.715Z,2.80
2018-12-25T17:42:17.543Z,2.80
2018-12-25T17:48:07.346Z,2.70
2018-12-25T17:50:35.829Z,2.70
2018-12-25T17:53:06.154Z,2.60
2018-12-25T17:55:34.451Z,2.50
2018-12-25T17:58:02.879Z,2.50
2018-12-25T18:00:50.695Z,2.40
2018-12-25T18:03:38.452Z,2.40
2018-12-25T18:06:07.111Z,2.40
2018-12-25T18:08:54.867Z,2.40
2018-12-25T18:11:35.288Z,2.40
2018-12-25T18:14:16.001Z,2.40
2018-12-25T18:16:44.696Z,2.40
2018-12-25T18:19:13.102Z,2.50
2018-12-25T18:21:41.515Z,2.40
2018-12-25T18:24:10.006Z,2.40
2018-12-25T18:26:38.431Z,2.50
2018-12-25T18:29:06.843Z,2.50
2018-12-25T18:31:35.279Z,2.50
2018-12-25T18:34:03.722Z,2.50
2018-12-25T18:36:32.174Z,2.50
2018-12-25T18:39:00.662Z,2.60
2018-12-25T18:41:29.078Z,2.50
2018-12-25T18:44:16.898Z,2.50
2018-12-25T18:46:45.361Z,2.50
2018-12-25T18:49:13.810Z,2.50
2018-12-25T18:51:42.289Z,2.60
2018-12-25T18:54:10.726Z,2.50
2018-12-25T18:56:39.178Z,2.50
2018-12-25T18:59:07.750Z,2.50
2018-12-25T19:01:36.167Z,2.50
2018-12-25T19:04:04.587Z,2.50
2018-12-25T19:06:33.660Z,2.60
2018-12-25T19:09:15.014Z,2.50
2018-12-25T19:11:43.702Z,2.50
2018-12-25T19:14:12.126Z,2.40
2018-12-25T19:16:40.534Z,2.40
2018-12-25T19:19:09.016Z,2.40
2018-12-25T19:21:57.140Z,2.40
2018-12-25T19:24:25.549Z,2.50
2018-12-25T19:26:53.994Z,2.60
2018-12-25T19:29:22.727Z,2.60
2018-12-25T19:31:51.203Z,2.60
2018-12-25T19:34:19.627Z,2.70
2018-12-25T19:36:48.129Z,2.70
2018-12-25T19:39:16.558Z,2.80
2018-12-25T19:41:45.026Z,2.90
2018-12-25T19:44:32.906Z,3.00
2018-12-25T19:47:13.903Z,2.90
2018-12-25T19:49:54.886Z,2.90
2018-12-25T19:52:35.662Z,2.90
2018-12-25T19:57:38.459Z,2.80
2018-12-25T20:00:26.290Z,2.80
2018-12-25T20:03:15.566Z,2.80
2018-12-25T20:06:24.155Z,2.80
2018-12-25T20:09:13.578Z,2.70
2018-12-25T20:11:54.303Z,2.60
2018-12-25T20:14:35.050Z,2.70
2018-12-25T20:17:24.776Z,2.60
2018-12-25T20:20:32.065Z,2.60
2018-12-25T20:23:21.604Z,2.60
2018-12-25T20:26:28.798Z,2.60
2018-12-25T20:29:10.002Z,2.70
2018-12-25T20:32:11.990Z,2.70
2018-12-25T20:38:15.079Z,2.50
2018-12-25T20:41:07.637Z,2.50
2018-12-25T20:46:33.373Z,2.40
2018-12-25T20:49:22.798Z,2.40
2018-12-25T20:52:12.500Z,2.40
2018-12-25T20:55:01.922Z,2.40
2018-12-25T20:57:42.520Z,2.40
2018-12-25T21:00:31.914Z,2.40
2018-12-25T21:03:21.202Z,2.40
2018-12-25T21:06:28.343Z,2.40
2018-12-25T21:09:09.408Z,2.30
2018-12-25T21:11:58.710Z,2.40
2018-12-25T21:14:48.051Z,2.40
2018-12-25T21:17:55.117Z,2.50
2018-12-25T21:20:36.256Z,2.50
2018-12-25T21:23:43.607Z,2.40
2018-12-25T21:26:50.742Z,2.40
2018-12-25T21:29:19.299Z,2.40
2018-12-25T21:32:07.259Z,2.40
2018-12-25T21:34:35.925Z,2.40
2018-12-25T21:37:23.778Z,2.40
2018-12-25T21:40:13.146Z,2.40
2018-12-25T21:43:21.615Z,2.40
2018-12-25T21:45:50.094Z,2.40
2018-12-25T21:48:37.943Z,2.40
2018-12-25T21:51:18.988Z,2.50
2018-12-25T21:53:47.466Z,2.40
2018-12-25T21:56:16.154Z,2.40
2018-12-25T22:01:39.911Z,2.40
2018-12-25T22:07:02.497Z,2.40
2018-12-25T22:09:30.918Z,2.40
2018-12-25T22:12:18.663Z,2.30
2018-12-25T22:15:07.423Z,2.30
2018-12-25T22:17:35.893Z,2.20
2018-12-25T22:20:25.234Z,2.20
2018-12-25T22:22:53.698Z,2.20
2018-12-25T22:25:41.713Z,2.10
2018-12-25T22:28:22.535Z,2.10
2018-12-25T22:31:03.895Z,2.10
2018-12-25T22:33:32.553Z,2.20
2018-12-25T22:36:00.971Z,2.20
2018-12-25T22:38:48.763Z,2.20
2018-12-25T22:41:29.775Z,2.20
2018-12-25T22:43:58.258Z,2.20
2018-12-25T22:46:26.734Z,2.10
2018-12-25T22:48:55.151Z,2.10
2018-12-25T22:51:43.051Z,2.10
2018-12-25T22:54:11.437Z,2.10
2018-12-25T22:56:39.867Z,2.00
2018-12-25T22:59:27.662Z,2.00
2018-12-25T23:02:08.903Z,2.10
2018-12-25T23:04:49.411Z,2.10
2018-12-25T23:07:17.823Z,2.20
2018-12-25T23:10:06.398Z,2.20
2018-12-25T23:12:34.869Z,2.00
2018-12-25T23:15:22.699Z,2.00
2018-12-25T23:17:51.102Z,1.90
2018-12-25T23:20:39.022Z,1.80
2018-12-25T23:23:19.663Z,1.80
2018-12-25T23:25:48.306Z,1.80
2018-12-25T23:28:36.050Z,1.80
2018-12-25T23:31:04.497Z,1.70
2018-12-25T23:33:32.973Z,1.70
2018-12-25T23:36:01.502Z,1.70
2018-12-25T23:38:49.393Z,1.70
2018-12-25T23:41:17.874Z,1.70
2018-12-25T23:43:46.288Z,1.70
2018-12-25T23:46:34.322Z,1.60
2018-12-25T23:49:02.830Z,1.70
2018-12-25T23:51:31.246Z,1.50
2018-12-25T23:53:59.719Z,1.50
2018-12-25T23:56:47.474Z,1.40
2018-12-25T23:59:16.363Z,1.50
